sensor_id;sensor_type;location;lat;lon;timestamp;temperature;humidity
24560;DHT22;12727;49.934;8.656;2023-05-07T00:01:42;15.30;99.90
24560;DHT22;12727;49.934;8.656;2023-05-07T00:04:08;15.50;99.90
24560;DHT22;12727;49.934;8.656;2023-05-07T00:06:33;15.50;99.90
24560;DHT22;12727;49.934;8.656;2023-05-07T00:08:59;15.50;99.90
24560;DHT22;12727;49.934;8.656;2023-05-07T00:11:26;15.40;99.90
24560;DHT22;12727;49.934;8.656;2023-05-07T00:13:52;15.20;99.90
24560;DHT22;12727;49.934;8.656;2023-05-07T00:16:18;15.10;99.90
24560;DHT22;12727;49.934;8.656;2023-05-07T00:18:43;15.20;99.90
24560;DHT22;12727;49.934;8.656;2023-05-07T00:21:09;15.10;99.90
24560;DHT22;12727;49.934;8.656;2023-05-07T00:23:34;15.10;99.90
24560;DHT22;12727;49.934;8.656;2023-05-07T00:26:00;15.10;99.90
24560;DHT22;12727;49.934;8.656;2023-05-07T00:28:25;15.20;99.90
24560;DHT22;12727;49.934;8.656;2023-05-07T00:30:51;15.20;99.90
24560;DHT22;12727;49.934;8.656;2023-05-07T00:33:16;15.00;99.90
24560;DHT22;12727;49.934;8.656;2023-05-07T00:35:42;15.00;99.90
24560;DHT22;12727;49.934;8.656;2023-05-07T00:38:08;14.90;99.90
24560;DHT22;12727;49.934;8.656;2023-05-07T00:40:33;15.00;99.90
24560;DHT22;12727;49.934;8.656;2023-05-07T00:42:59;14.90;99.90
24560;DHT22;12727;49.934;8.656;2023-05-07T00:45:28;14.90;99.90
24560;DHT22;12727;49.934;8.656;2023-05-07T00:47:55;14.80;99.90
24560;DHT22;12727;49.934;8.656;2023-05-07T00:50:22;14.70;99.90
24560;DHT22;12727;49.934;8.656;2023-05-07T00:52:48;14.60;99.90
24560;DHT22;12727;49.934;8.656;2023-05-07T00:55:14;14.40;99.90
24560;DHT22;12727;49.934;8.656;2023-05-07T00:57:41;14.30;99.90
24560;DHT22;12727;49.934;8.656;2023-05-07T01:00:09;14.30;99.90
24560;DHT22;12727;49.934;8.656;2023-05-07T01:02:35;14.30;99.90
24560;DHT22;12727;49.934;8.656;2023-05-07T01:05:02;14.40;99.90
24560;DHT22;12727;49.934;8.656;2023-05-07T01:07:29;14.70;99.90
24560;DHT22;12727;49.934;8.656;2023-05-07T01:09:56;14.90;99.90
24560;DHT22;12727;49.934;8.656;2023-05-07T01:12:22;14.90;99.90
24560;DHT22;12727;49.934;8.656;2023-05-07T01:14:48;15.10;99.90
24560;DHT22;12727;49.934;8.656;2023-05-07T01:17:15;15.20;99.90
24560;DHT22;12727;49.934;8.656;2023-05-07T01:19:41;15.10;99.90
24560;DHT22;12727;49.934;8.656;2023-05-07T01:22:09;15.20;99.90
24560;DHT22;12727;49.934;8.656;2023-05-07T01:24:36;15.30;99.90
24560;DHT22;12727;49.934;8.656;2023-05-07T01:27:02;15.30;99.90
24560;DHT22;12727;49.934;8.656;2023-05-07T01:29:28;15.10;99.90
24560;DHT22;12727;49.934;8.656;2023-05-07T01:31:58;15.00;99.90
24560;DHT22;12727;49.934;8.656;2023-05-07T01:34:26;15.20;99.90
24560;DHT22;12727;49.934;8.656;2023-05-07T01:36:54;15.40;99.90
24560;DHT22;12727;49.934;8.656;2023-05-07T01:39:22;15.50;99.90
24560;DHT22;12727;49.934;8.656;2023-05-07T01:41:49;15.50;99.90
24560;DHT22;12727;49.934;8.656;2023-05-07T01:44:15;15.50;99.90
24560;DHT22;12727;49.934;8.656;2023-05-07T01:46:42;15.60;99.90
24560;DHT22;12727;49.934;8.656;2023-05-07T01:49:07;15.60;99.90
24560;DHT22;12727;49.934;8.656;2023-05-07T01:51:33;15.60;99.90
24560;DHT22;12727;49.934;8.656;2023-05-07T01:53:59;15.60;99.90
24560;DHT22;12727;49.934;8.656;2023-05-07T01:56:25;15.60;99.90
24560;DHT22;12727;49.934;8.656;2023-05-07T01:58:51;15.50;99.90
24560;DHT22;12727;49.934;8.656;2023-05-07T02:01:17;15.30;99.90
24560;DHT22;12727;49.934;8.656;2023-05-07T02:03:43;15.30;99.90
24560;DHT22;12727;49.934;8.656;2023-05-07T02:06:09;15.40;99.90
24560;DHT22;12727;49.934;8.656;2023-05-07T02:08:35;15.40;99.90
24560;DHT22;12727;49.934;8.656;2023-05-07T02:11:00;15.40;99.90
24560;DHT22;12727;49.934;8.656;2023-05-07T02:13:32;15.40;99.90
24560;DHT22;12727;49.934;8.656;2023-05-07T02:15:58;15.30;99.90
24560;DHT22;12727;49.934;8.656;2023-05-07T02:18:23;15.30;99.90
24560;DHT22;12727;49.934;8.656;2023-05-07T02:20:49;15.10;99.90
24560;DHT22;12727;49.934;8.656;2023-05-07T02:23:14;15.00;99.90
24560;DHT22;12727;49.934;8.656;2023-05-07T02:25:40;15.00;99.90
24560;DHT22;12727;49.934;8.656;2023-05-07T02:28:05;14.90;99.90
24560;DHT22;12727;49.934;8.656;2023-05-07T02:30:31;14.70;99.90
24560;DHT22;12727;49.934;8.656;2023-05-07T02:32:57;14.40;99.90
24560;DHT22;12727;49.934;8.656;2023-05-07T02:35:24;14.40;99.90
24560;DHT22;12727;49.934;8.656;2023-05-07T02:37:50;14.40;99.90
24560;DHT22;12727;49.934;8.656;2023-05-07T02:40:16;14.30;99.90
24560;DHT22;12727;49.934;8.656;2023-05-07T02:42:41;14.30;99.90
24560;DHT22;12727;49.934;8.656;2023-05-07T02:45:07;14.40;99.90
24560;DHT22;12727;49.934;8.656;2023-05-07T02:47:33;14.40;99.90
24560;DHT22;12727;49.934;8.656;2023-05-07T02:49:58;14.40;99.90
24560;DHT22;12727;49.934;8.656;2023-05-07T02:52:24;14.30;99.90
24560;DHT22;12727;49.934;8.656;2023-05-07T02:54:49;14.30;99.90
24560;DHT22;12727;49.934;8.656;2023-05-07T02:57:15;14.30;99.90
24560;DHT22;12727;49.934;8.656;2023-05-07T02:59:42;14.40;99.90
24560;DHT22;12727;49.934;8.656;2023-05-07T03:02:07;14.40;99.90
24560;DHT22;12727;49.934;8.656;2023-05-07T03:04:33;14.50;99.90
24560;DHT22;12727;49.934;8.656;2023-05-07T03:06:58;14.70;99.90
24560;DHT22;12727;49.934;8.656;2023-05-07T03:09:24;14.60;99.90
24560;DHT22;12727;49.934;8.656;2023-05-07T03:11:50;14.50;99.90
24560;DHT22;12727;49.934;8.656;2023-05-07T03:14:15;14.30;99.90
24560;DHT22;12727;49.934;8.656;2023-05-07T03:16:41;14.30;99.90
24560;DHT22;12727;49.934;8.656;2023-05-07T03:19:06;14.20;99.90
24560;DHT22;12727;49.934;8.656;2023-05-07T03:21:32;14.10;99.90
24560;DHT22;12727;49.934;8.656;2023-05-07T03:23:59;14.30;99.90
24560;DHT22;12727;49.934;8.656;2023-05-07T03:26:24;14.40;99.90
24560;DHT22;12727;49.934;8.656;2023-05-07T03:28:50;14.50;99.90
24560;DHT22;12727;49.934;8.656;2023-05-07T03:31:16;14.40;99.90
24560;DHT22;12727;49.934;8.656;2023-05-07T03:36:17;14.10;99.90
24560;DHT22;12727;49.934;8.656;2023-05-07T03:38:43;13.90;99.90
24560;DHT22;12727;49.934;8.656;2023-05-07T03:41:08;13.90;99.90
24560;DHT22;12727;49.934;8.656;2023-05-07T03:43:34;13.80;99.90
24560;DHT22;12727;49.934;8.656;2023-05-07T03:46:00;13.70;99.90
24560;DHT22;12727;49.934;8.656;2023-05-07T03:48:25;13.80;99.90
24560;DHT22;12727;49.934;8.656;2023-05-07T03:50:51;13.80;99.90
24560;DHT22;12727;49.934;8.656;2023-05-07T03:53:16;13.80;99.90
24560;DHT22;12727;49.934;8.656;2023-05-07T03:55:42;13.80;99.90
24560;DHT22;12727;49.934;8.656;2023-05-07T03:58:08;13.70;99.90
24560;DHT22;12727;49.934;8.656;2023-05-07T04:00:33;13.80;99.90
24560;DHT22;12727;49.934;8.656;2023-05-07T04:03:03;13.90;99.90
24560;DHT22;12727;49.934;8.656;2023-05-07T04:05:30;13.90;99.90
24560;DHT22;12727;49.934;8.656;2023-05-07T04:07:57;13.90;99.90
24560;DHT22;12727;49.934;8.656;2023-05-07T04:10:22;13.90;99.90
24560;DHT22;12727;49.934;8.656;2023-05-07T04:12:48;14.00;99.90
24560;DHT22;12727;49.934;8.656;2023-05-07T04:15:14;14.00;99.90
24560;DHT22;12727;49.934;8.656;2023-05-07T04:17:39;14.00;99.90
24560;DHT22;12727;49.934;8.656;2023-05-07T04:20:10;14.00;99.90
24560;DHT22;12727;49.934;8.656;2023-05-07T04:22:36;14.10;99.90
24560;DHT22;12727;49.934;8.656;2023-05-07T04:25:02;14.00;99.90
24560;DHT22;12727;49.934;8.656;2023-05-07T04:27:28;14.30;99.90
24560;DHT22;12727;49.934;8.656;2023-05-07T04:29:53;14.40;99.90
24560;DHT22;12727;49.934;8.656;2023-05-07T04:32:21;14.50;99.90
24560;DHT22;12727;49.934;8.656;2023-05-07T04:34:47;14.60;99.90
24560;DHT22;12727;49.934;8.656;2023-05-07T04:37:13;14.50;99.90
24560;DHT22;12727;49.934;8.656;2023-05-07T04:39:38;14.40;99.90
24560;DHT22;12727;49.934;8.656;2023-05-07T04:42:04;14.20;99.90
24560;DHT22;12727;49.934;8.656;2023-05-07T04:44:30;14.10;99.90
24560;DHT22;12727;49.934;8.656;2023-05-07T04:46:56;14.00;99.90
24560;DHT22;12727;49.934;8.656;2023-05-07T04:49:22;14.00;99.90
24560;DHT22;12727;49.934;8.656;2023-05-07T04:51:48;14.10;99.90
24560;DHT22;12727;49.934;8.656;2023-05-07T04:54:13;14.10;99.90
24560;DHT22;12727;49.934;8.656;2023-05-07T04:56:39;14.00;99.90
24560;DHT22;12727;49.934;8.656;2023-05-07T04:59:04;14.20;99.90
24560;DHT22;12727;49.934;8.656;2023-05-07T05:01:31;14.10;99.90
24560;DHT22;12727;49.934;8.656;2023-05-07T05:03:56;14.10;99.90
24560;DHT22;12727;49.934;8.656;2023-05-07T05:06:22;14.10;99.90
24560;DHT22;12727;49.934;8.656;2023-05-07T05:08:47;14.10;99.90
24560;DHT22;12727;49.934;8.656;2023-05-07T05:11:13;14.10;99.90
24560;DHT22;12727;49.934;8.656;2023-05-07T05:13:38;14.10;99.90
24560;DHT22;12727;49.934;8.656;2023-05-07T05:16:04;14.20;99.90
24560;DHT22;12727;49.934;8.656;2023-05-07T05:18:32;14.30;99.90
24560;DHT22;12727;49.934;8.656;2023-05-07T05:20:58;14.40;99.90
24560;DHT22;12727;49.934;8.656;2023-05-07T05:23:23;14.50;99.90
24560;DHT22;12727;49.934;8.656;2023-05-07T05:25:49;14.70;99.90
24560;DHT22;12727;49.934;8.656;2023-05-07T05:28:15;14.80;99.90
24560;DHT22;12727;49.934;8.656;2023-05-07T05:30:40;15.00;99.90
24560;DHT22;12727;49.934;8.656;2023-05-07T05:33:06;15.00;99.90
24560;DHT22;12727;49.934;8.656;2023-05-07T05:35:31;15.00;99.90
24560;DHT22;12727;49.934;8.656;2023-05-07T05:37:57;15.00;99.90
24560;DHT22;12727;49.934;8.656;2023-05-07T05:40:23;14.90;99.90
24560;DHT22;12727;49.934;8.656;2023-05-07T05:42:48;14.80;99.90
24560;DHT22;12727;49.934;8.656;2023-05-07T05:45:14;14.90;99.90
24560;DHT22;12727;49.934;8.656;2023-05-07T05:47:40;14.90;99.90
24560;DHT22;12727;49.934;8.656;2023-05-07T05:50:07;14.90;99.90
24560;DHT22;12727;49.934;8.656;2023-05-07T05:52:32;14.90;99.90
24560;DHT22;12727;49.934;8.656;2023-05-07T05:54:58;15.00;99.90
24560;DHT22;12727;49.934;8.656;2023-05-07T05:57:23;15.00;99.90
24560;DHT22;12727;49.934;8.656;2023-05-07T05:59:49;15.10;99.90
24560;DHT22;12727;49.934;8.656;2023-05-07T06:02:15;15.10;99.90
24560;DHT22;12727;49.934;8.656;2023-05-07T06:04:40;15.10;99.90
24560;DHT22;12727;49.934;8.656;2023-05-07T06:07:07;15.20;99.90
24560;DHT22;12727;49.934;8.656;2023-05-07T06:09:33;15.20;99.90
24560;DHT22;12727;49.934;8.656;2023-05-07T06:11:58;15.20;99.90
24560;DHT22;12727;49.934;8.656;2023-05-07T06:14:24;15.30;99.90
24560;DHT22;12727;49.934;8.656;2023-05-07T06:16:49;15.40;99.90
24560;DHT22;12727;49.934;8.656;2023-05-07T06:19:15;15.40;99.90
24560;DHT22;12727;49.934;8.656;2023-05-07T06:21:43;15.40;99.90
24560;DHT22;12727;49.934;8.656;2023-05-07T06:24:09;15.40;99.90
24560;DHT22;12727;49.934;8.656;2023-05-07T06:26:34;15.40;99.90
24560;DHT22;12727;49.934;8.656;2023-05-07T06:29:00;15.50;99.90
24560;DHT22;12727;49.934;8.656;2023-05-07T06:31:29;15.50;99.90
24560;DHT22;12727;49.934;8.656;2023-05-07T06:33:56;15.50;99.90
24560;DHT22;12727;49.934;8.656;2023-05-07T06:36:22;15.50;99.90
24560;DHT22;12727;49.934;8.656;2023-05-07T06:38:47;15.60;99.90
24560;DHT22;12727;49.934;8.656;2023-05-07T06:41:13;15.70;99.90
24560;DHT22;12727;49.934;8.656;2023-05-07T06:43:38;15.80;99.90
24560;DHT22;12727;49.934;8.656;2023-05-07T06:46:04;15.90;99.90
24560;DHT22;12727;49.934;8.656;2023-05-07T06:48:30;15.90;99.90
24560;DHT22;12727;49.934;8.656;2023-05-07T06:50:56;16.00;99.90
24560;DHT22;12727;49.934;8.656;2023-05-07T06:53:23;16.00;99.90
24560;DHT22;12727;49.934;8.656;2023-05-07T06:55:48;16.20;99.90
24560;DHT22;12727;49.934;8.656;2023-05-07T06:58:14;16.20;99.90
24560;DHT22;12727;49.934;8.656;2023-05-07T07:00:40;16.20;99.90
24560;DHT22;12727;49.934;8.656;2023-05-07T07:03:06;16.30;99.90
24560;DHT22;12727;49.934;8.656;2023-05-07T07:05:32;16.40;99.90
24560;DHT22;12727;49.934;8.656;2023-05-07T07:07:57;16.40;99.90
24560;DHT22;12727;49.934;8.656;2023-05-07T07:10:23;16.30;99.90
24560;DHT22;12727;49.934;8.656;2023-05-07T07:12:49;16.30;99.90
24560;DHT22;12727;49.934;8.656;2023-05-07T07:15:15;16.40;99.90
24560;DHT22;12727;49.934;8.656;2023-05-07T07:17:41;16.30;99.90
24560;DHT22;12727;49.934;8.656;2023-05-07T07:20:07;16.40;99.90
24560;DHT22;12727;49.934;8.656;2023-05-07T07:22:33;16.40;99.90
24560;DHT22;12727;49.934;8.656;2023-05-07T07:24:58;16.50;99.90
24560;DHT22;12727;49.934;8.656;2023-05-07T07:27:24;16.50;99.90
24560;DHT22;12727;49.934;8.656;2023-05-07T07:29:50;16.60;99.90
24560;DHT22;12727;49.934;8.656;2023-05-07T07:32:15;16.50;99.90
24560;DHT22;12727;49.934;8.656;2023-05-07T07:34:41;16.50;99.90
24560;DHT22;12727;49.934;8.656;2023-05-07T07:37:06;16.60;99.90
24560;DHT22;12727;49.934;8.656;2023-05-07T07:39:33;16.70;99.90
24560;DHT22;12727;49.934;8.656;2023-05-07T07:41:58;16.80;99.90
24560;DHT22;12727;49.934;8.656;2023-05-07T07:44:24;16.80;99.90
24560;DHT22;12727;49.934;8.656;2023-05-07T07:46:50;16.80;99.90
24560;DHT22;12727;49.934;8.656;2023-05-07T07:49:16;16.80;99.90
24560;DHT22;12727;49.934;8.656;2023-05-07T07:51:41;16.80;99.90
24560;DHT22;12727;49.934;8.656;2023-05-07T07:54:07;16.80;99.90
24560;DHT22;12727;49.934;8.656;2023-05-07T07:56:33;16.70;99.90
24560;DHT22;12727;49.934;8.656;2023-05-07T07:58:59;16.70;99.90
24560;DHT22;12727;49.934;8.656;2023-05-07T08:01:24;16.80;99.90
24560;DHT22;12727;49.934;8.656;2023-05-07T08:03:51;16.80;99.90
24560;DHT22;12727;49.934;8.656;2023-05-07T08:06:16;16.80;99.90
24560;DHT22;12727;49.934;8.656;2023-05-07T08:08:42;16.90;99.90
24560;DHT22;12727;49.934;8.656;2023-05-07T08:11:08;17.00;99.90
24560;DHT22;12727;49.934;8.656;2023-05-07T08:13:33;17.00;99.90
24560;DHT22;12727;49.934;8.656;2023-05-07T08:15:59;17.00;99.90
24560;DHT22;12727;49.934;8.656;2023-05-07T08:18:25;17.00;99.90
24560;DHT22;12727;49.934;8.656;2023-05-07T08:20:51;17.00;99.90
24560;DHT22;12727;49.934;8.656;2023-05-07T08:23:16;17.10;99.90
24560;DHT22;12727;49.934;8.656;2023-05-07T08:25:42;17.20;99.90
24560;DHT22;12727;49.934;8.656;2023-05-07T08:28:08;17.20;99.90
24560;DHT22;12727;49.934;8.656;2023-05-07T08:30:34;17.20;99.90
24560;DHT22;12727;49.934;8.656;2023-05-07T08:33:00;17.20;99.90
24560;DHT22;12727;49.934;8.656;2023-05-07T08:35:25;17.20;99.90
24560;DHT22;12727;49.934;8.656;2023-05-07T08:37:52;17.20;99.90
24560;DHT22;12727;49.934;8.656;2023-05-07T08:40:18;17.40;99.90
24560;DHT22;12727;49.934;8.656;2023-05-07T08:42:44;17.40;99.90
24560;DHT22;12727;49.934;8.656;2023-05-07T08:45:10;17.50;99.90
24560;DHT22;12727;49.934;8.656;2023-05-07T08:47:53;17.50;99.90
24560;DHT22;12727;49.934;8.656;2023-05-07T08:50:20;17.60;99.90
24560;DHT22;12727;49.934;8.656;2023-05-07T08:52:46;17.70;99.90
24560;DHT22;12727;49.934;8.656;2023-05-07T08:55:12;17.80;99.90
24560;DHT22;12727;49.934;8.656;2023-05-07T08:57:38;17.90;99.90
24560;DHT22;12727;49.934;8.656;2023-05-07T09:00:05;17.90;99.90
24560;DHT22;12727;49.934;8.656;2023-05-07T09:02:32;17.90;99.90
24560;DHT22;12727;49.934;8.656;2023-05-07T09:04:58;18.10;99.90
24560;DHT22;12727;49.934;8.656;2023-05-07T09:07:24;18.20;99.90
24560;DHT22;12727;49.934;8.656;2023-05-07T09:09:50;18.20;99.90
24560;DHT22;12727;49.934;8.656;2023-05-07T09:12:18;18.30;99.90
24560;DHT22;12727;49.934;8.656;2023-05-07T09:14:44;18.40;99.90
24560;DHT22;12727;49.934;8.656;2023-05-07T09:17:11;18.50;99.90
24560;DHT22;12727;49.934;8.656;2023-05-07T09:19:36;18.70;99.80
24560;DHT22;12727;49.934;8.656;2023-05-07T09:22:03;18.80;99.00
24560;DHT22;12727;49.934;8.656;2023-05-07T09:24:29;18.90;98.50
24560;DHT22;12727;49.934;8.656;2023-05-07T09:26:59;19.00;98.40
24560;DHT22;12727;49.934;8.656;2023-05-07T09:29:26;19.10;98.00
24560;DHT22;12727;49.934;8.656;2023-05-07T09:31:54;19.20;97.50
24560;DHT22;12727;49.934;8.656;2023-05-07T09:34:20;19.20;97.50
24560;DHT22;12727;49.934;8.656;2023-05-07T09:36:45;19.40;97.90
24560;DHT22;12727;49.934;8.656;2023-05-07T09:39:11;19.70;97.30
24560;DHT22;12727;49.934;8.656;2023-05-07T09:41:47;20.00;97.10
24560;DHT22;12727;49.934;8.656;2023-05-07T09:44:15;20.30;96.10
24560;DHT22;12727;49.934;8.656;2023-05-07T09:46:43;20.30;94.90
24560;DHT22;12727;49.934;8.656;2023-05-07T09:49:12;20.40;94.70
24560;DHT22;12727;49.934;8.656;2023-05-07T09:51:48;20.30;94.80
24560;DHT22;12727;49.934;8.656;2023-05-07T09:54:15;20.50;93.90
24560;DHT22;12727;49.934;8.656;2023-05-07T09:56:45;20.60;93.60
24560;DHT22;12727;49.934;8.656;2023-05-07T09:59:15;20.50;93.70
24560;DHT22;12727;49.934;8.656;2023-05-07T10:01:43;20.70;92.90
24560;DHT22;12727;49.934;8.656;2023-05-07T10:04:12;20.80;93.10
24560;DHT22;12727;49.934;8.656;2023-05-07T10:06:38;21.00;92.70
24560;DHT22;12727;49.934;8.656;2023-05-07T10:09:04;20.80;93.00
24560;DHT22;12727;49.934;8.656;2023-05-07T10:11:32;20.60;92.90
24560;DHT22;12727;49.934;8.656;2023-05-07T10:13:59;20.50;92.90
24560;DHT22;12727;49.934;8.656;2023-05-07T10:16:28;20.80;93.20
24560;DHT22;12727;49.934;8.656;2023-05-07T10:18:58;20.70;93.40
24560;DHT22;12727;49.934;8.656;2023-05-07T10:21:24;20.90;92.70
24560;DHT22;12727;49.934;8.656;2023-05-07T10:24:03;21.10;91.50
24560;DHT22;12727;49.934;8.656;2023-05-07T10:26:32;21.50;90.10
24560;DHT22;12727;49.934;8.656;2023-05-07T10:29:05;21.70;90.10
24560;DHT22;12727;49.934;8.656;2023-05-07T10:31:59;21.70;90.20
24560;DHT22;12727;49.934;8.656;2023-05-07T10:34:36;21.50;90.40
24560;DHT22;12727;49.934;8.656;2023-05-07T10:37:03;21.30;91.00
24560;DHT22;12727;49.934;8.656;2023-05-07T10:39:29;21.10;91.10
24560;DHT22;12727;49.934;8.656;2023-05-07T10:41:55;21.00;90.60
24560;DHT22;12727;49.934;8.656;2023-05-07T10:44:28;21.20;90.10
24560;DHT22;12727;49.934;8.656;2023-05-07T10:47:08;21.60;88.80
24560;DHT22;12727;49.934;8.656;2023-05-07T10:54:45;22.90;83.40
24560;DHT22;12727;49.934;8.656;2023-05-07T10:57:35;22.90;80.60
24560;DHT22;12727;49.934;8.656;2023-05-07T11:00:02;23.00;80.90
24560;DHT22;12727;49.934;8.656;2023-05-07T11:05:25;24.00;78.90
24560;DHT22;12727;49.934;8.656;2023-05-07T11:07:55;24.50;79.80
24560;DHT22;12727;49.934;8.656;2023-05-07T11:10:21;25.20;76.70
24560;DHT22;12727;49.934;8.656;2023-05-07T11:12:48;25.30;74.40
24560;DHT22;12727;49.934;8.656;2023-05-07T11:15:14;24.80;75.10
24560;DHT22;12727;49.934;8.656;2023-05-07T11:17:54;24.60;76.00
24560;DHT22;12727;49.934;8.656;2023-05-07T11:20:20;24.30;74.40
24560;DHT22;12727;49.934;8.656;2023-05-07T11:22:47;24.20;74.40
24560;DHT22;12727;49.934;8.656;2023-05-07T11:25:19;23.90;74.00
24560;DHT22;12727;49.934;8.656;2023-05-07T11:27:45;23.60;74.60
24560;DHT22;12727;49.934;8.656;2023-05-07T11:30:17;23.50;74.40
24560;DHT22;12727;49.934;8.656;2023-05-07T11:32:44;23.40;74.60
24560;DHT22;12727;49.934;8.656;2023-05-07T11:35:12;23.20;75.20
24560;DHT22;12727;49.934;8.656;2023-05-07T11:37:39;23.20;73.40
24560;DHT22;12727;49.934;8.656;2023-05-07T11:40:06;23.20;71.80
24560;DHT22;12727;49.934;8.656;2023-05-07T11:42:35;23.10;72.30
24560;DHT22;12727;49.934;8.656;2023-05-07T11:45:02;23.00;72.30
24560;DHT22;12727;49.934;8.656;2023-05-07T11:47:30;23.00;72.60
24560;DHT22;12727;49.934;8.656;2023-05-07T11:49:56;23.00;72.30
24560;DHT22;12727;49.934;8.656;2023-05-07T11:52:23;23.10;73.00
24560;DHT22;12727;49.934;8.656;2023-05-07T11:54:56;23.00;72.80
24560;DHT22;12727;49.934;8.656;2023-05-07T11:57:24;22.90;72.90
24560;DHT22;12727;49.934;8.656;2023-05-07T11:59:54;22.80;72.70
24560;DHT22;12727;49.934;8.656;2023-05-07T12:02:19;22.90;71.50
24560;DHT22;12727;49.934;8.656;2023-05-07T12:04:45;23.00;71.20
24560;DHT22;12727;49.934;8.656;2023-05-07T12:07:12;23.10;71.40
24560;DHT22;12727;49.934;8.656;2023-05-07T12:09:39;23.30;71.60
24560;DHT22;12727;49.934;8.656;2023-05-07T12:12:05;23.30;72.10
24560;DHT22;12727;49.934;8.656;2023-05-07T12:14:31;23.40;71.70
24560;DHT22;12727;49.934;8.656;2023-05-07T12:17:01;23.30;70.40
24560;DHT22;12727;49.934;8.656;2023-05-07T12:19:30;23.00;70.70
24560;DHT22;12727;49.934;8.656;2023-05-07T12:21:56;23.00;71.10
24560;DHT22;12727;49.934;8.656;2023-05-07T12:24:22;23.00;71.10
24560;DHT22;12727;49.934;8.656;2023-05-07T12:26:48;23.10;70.00
24560;DHT22;12727;49.934;8.656;2023-05-07T12:29:14;23.20;70.70
24560;DHT22;12727;49.934;8.656;2023-05-07T12:31:43;23.10;70.00
24560;DHT22;12727;49.934;8.656;2023-05-07T12:34:11;23.10;69.40
24560;DHT22;12727;49.934;8.656;2023-05-07T12:36:38;23.20;69.20
24560;DHT22;12727;49.934;8.656;2023-05-07T12:39:05;23.30;68.70
24560;DHT22;12727;49.934;8.656;2023-05-07T12:41:55;23.50;70.00
24560;DHT22;12727;49.934;8.656;2023-05-07T12:44:31;23.70;68.50
24560;DHT22;12727;49.934;8.656;2023-05-07T12:46:56;23.70;67.80
24560;DHT22;12727;49.934;8.656;2023-05-07T12:49:23;23.60;68.70
24560;DHT22;12727;49.934;8.656;2023-05-07T12:51:49;23.60;67.40
24560;DHT22;12727;49.934;8.656;2023-05-07T12:54:30;23.60;66.40
24560;DHT22;12727;49.934;8.656;2023-05-07T12:57:08;23.60;66.30
24560;DHT22;12727;49.934;8.656;2023-05-07T12:59:38;23.60;65.70
24560;DHT22;12727;49.934;8.656;2023-05-07T13:02:05;23.60;64.70
24560;DHT22;12727;49.934;8.656;2023-05-07T13:04:31;23.50;65.40
24560;DHT22;12727;49.934;8.656;2023-05-07T13:06:56;23.40;65.70
24560;DHT22;12727;49.934;8.656;2023-05-07T13:09:22;23.20;64.90
24560;DHT22;12727;49.934;8.656;2023-05-07T13:11:47;23.20;64.60
24560;DHT22;12727;49.934;8.656;2023-05-07T13:14:13;23.10;63.40
24560;DHT22;12727;49.934;8.656;2023-05-07T13:16:38;23.10;63.70
24560;DHT22;12727;49.934;8.656;2023-05-07T13:19:04;23.20;62.40
24560;DHT22;12727;49.934;8.656;2023-05-07T13:21:30;23.20;62.60
24560;DHT22;12727;49.934;8.656;2023-05-07T13:23:57;23.20;62.80
24560;DHT22;12727;49.934;8.656;2023-05-07T13:26:23;23.30;63.70
24560;DHT22;12727;49.934;8.656;2023-05-07T13:28:49;23.40;64.90
24560;DHT22;12727;49.934;8.656;2023-05-07T13:31:14;23.40;65.00
24560;DHT22;12727;49.934;8.656;2023-05-07T13:33:40;23.40;65.40
24560;DHT22;12727;49.934;8.656;2023-05-07T13:36:06;23.50;64.90
24560;DHT22;12727;49.934;8.656;2023-05-07T13:38:31;23.70;64.10
24560;DHT22;12727;49.934;8.656;2023-05-07T13:40:57;23.80;64.50
24560;DHT22;12727;49.934;8.656;2023-05-07T13:43:24;23.90;63.70
24560;DHT22;12727;49.934;8.656;2023-05-07T13:45:49;23.90;63.70
24560;DHT22;12727;49.934;8.656;2023-05-07T13:48:15;23.90;63.50
24560;DHT22;12727;49.934;8.656;2023-05-07T13:50:41;24.00;63.30
24560;DHT22;12727;49.934;8.656;2023-05-07T13:53:07;24.00;62.00
24560;DHT22;12727;49.934;8.656;2023-05-07T13:55:33;24.10;62.00
24560;DHT22;12727;49.934;8.656;2023-05-07T13:58:00;24.00;62.20
24560;DHT22;12727;49.934;8.656;2023-05-07T14:00:27;23.90;62.20
24560;DHT22;12727;49.934;8.656;2023-05-07T14:02:53;23.80;62.40
24560;DHT22;12727;49.934;8.656;2023-05-07T14:05:19;23.60;62.00
24560;DHT22;12727;49.934;8.656;2023-05-07T14:07:44;23.60;62.40
24560;DHT22;12727;49.934;8.656;2023-05-07T14:10:10;23.60;61.50
24560;DHT22;12727;49.934;8.656;2023-05-07T14:12:36;23.60;61.10
24560;DHT22;12727;49.934;8.656;2023-05-07T14:15:03;23.60;60.10
24560;DHT22;12727;49.934;8.656;2023-05-07T14:17:28;23.70;60.50
24560;DHT22;12727;49.934;8.656;2023-05-07T14:19:54;23.70;60.10
24560;DHT22;12727;49.934;8.656;2023-05-07T14:22:21;23.70;61.70
24560;DHT22;12727;49.934;8.656;2023-05-07T14:24:48;23.70;61.80
24560;DHT22;12727;49.934;8.656;2023-05-07T14:27:13;23.60;61.10
24560;DHT22;12727;49.934;8.656;2023-05-07T14:29:39;23.70;61.30
24560;DHT22;12727;49.934;8.656;2023-05-07T14:32:05;23.70;61.70
24560;DHT22;12727;49.934;8.656;2023-05-07T14:34:31;23.80;62.10
24560;DHT22;12727;49.934;8.656;2023-05-07T14:36:57;23.60;63.90
24560;DHT22;12727;49.934;8.656;2023-05-07T14:39:22;23.60;63.40
24560;DHT22;12727;49.934;8.656;2023-05-07T14:41:48;23.80;62.40
24560;DHT22;12727;49.934;8.656;2023-05-07T14:44:13;23.80;62.50
24560;DHT22;12727;49.934;8.656;2023-05-07T14:46:39;23.70;62.60
24560;DHT22;12727;49.934;8.656;2023-05-07T14:49:04;23.60;62.70
24560;DHT22;12727;49.934;8.656;2023-05-07T14:51:30;23.60;61.40
24560;DHT22;12727;49.934;8.656;2023-05-07T14:53:56;23.60;61.60
24560;DHT22;12727;49.934;8.656;2023-05-07T14:56:22;23.60;61.20
24560;DHT22;12727;49.934;8.656;2023-05-07T14:58:48;23.60;60.20
24560;DHT22;12727;49.934;8.656;2023-05-07T15:01:14;23.60;59.70
24560;DHT22;12727;49.934;8.656;2023-05-07T15:03:40;23.70;59.90
24560;DHT22;12727;49.934;8.656;2023-05-07T15:06:06;23.70;60.10
24560;DHT22;12727;49.934;8.656;2023-05-07T15:08:31;23.60;60.50
24560;DHT22;12727;49.934;8.656;2023-05-07T15:10:57;23.70;59.90
24560;DHT22;12727;49.934;8.656;2023-05-07T15:13:22;23.60;59.90
24560;DHT22;12727;49.934;8.656;2023-05-07T15:15:48;23.50;60.30
24560;DHT22;12727;49.934;8.656;2023-05-07T15:18:15;23.50;60.80
24560;DHT22;12727;49.934;8.656;2023-05-07T15:20:41;23.40;61.20
24560;DHT22;12727;49.934;8.656;2023-05-07T15:23:07;23.30;61.20
24560;DHT22;12727;49.934;8.656;2023-05-07T15:25:37;23.20;61.60
24560;DHT22;12727;49.934;8.656;2023-05-07T15:28:03;23.20;62.40
24560;DHT22;12727;49.934;8.656;2023-05-07T15:30:28;23.10;62.60
24560;DHT22;12727;49.934;8.656;2023-05-07T15:32:54;23.10;62.50
24560;DHT22;12727;49.934;8.656;2023-05-07T15:35:20;23.00;62.10
24560;DHT22;12727;49.934;8.656;2023-05-07T15:37:48;23.00;62.40